createdAt,value
2022-08-22T00:00:16.921Z,17.80
2022-08-22T00:02:42.424Z,20.90
2022-08-22T00:02:43.552Z,19.30
2022-08-22T00:02:45.811Z,20.40
2022-08-22T00:02:52.801Z,21.40
2022-08-22T00:02:57.280Z,20.90
2022-08-22T00:03:10.387Z,18.40
2022-08-22T00:03:25.055Z,17.70
2022-08-22T00:06:22.191Z,17.70
2022-08-22T00:09:03.908Z,17.60
2022-08-22T00:11:46.017Z,17.60
2022-08-22T00:14:12.776Z,17.50
2022-08-22T00:16:45.934Z,17.40
2022-08-22T00:19:18.676Z,17.40
2022-08-22T00:21:50.067Z,17.40
2022-08-22T00:24:16.804Z,17.40
2022-08-22T00:26:49.012Z,17.40
2022-08-22T00:29:19.447Z,17.40
2022-08-22T00:31:48.873Z,17.40
2022-08-22T00:34:15.612Z,17.30
2022-08-22T00:36:43.463Z,17.30
2022-08-22T00:39:34.095Z,17.30
2022-08-22T00:42:15.930Z,17.30
2022-08-22T00:45:13.354Z,17.20
2022-08-22T00:47:40.054Z,17.20
2022-08-22T00:50:19.333Z,17.30
2022-08-22T00:53:04.073Z,17.30
2022-08-22T00:55:37.167Z,17.20
2022-08-22T00:58:16.119Z,17.20
2022-08-22T01:00:45.009Z,17.10
2022-08-22T01:03:11.769Z,17.10
2022-08-22T01:05:41.353Z,17.10
2022-08-22T01:08:14.154Z,17.00
2022-08-22T01:10:41.324Z,17.00
2022-08-22T01:13:14.138Z,17.00
2022-08-22T01:15:42.609Z,16.90
2022-08-22T01:18:12.331Z,16.90
2022-08-22T01:20:39.096Z,16.90
2022-08-22T01:23:05.821Z,16.90
2022-08-22T01:25:44.906Z,16.80
2022-08-22T01:28:14.531Z,16.80
2022-08-22T01:30:57.997Z,16.70
2022-08-22T01:33:36.867Z,16.70
2022-08-22T01:36:21.063Z,16.70
2022-08-22T01:39:01.357Z,16.60
2022-08-22T01:41:28.106Z,16.60
2022-08-22T01:44:00.535Z,16.50
2022-08-22T01:46:33.080Z,16.50
2022-08-22T01:49:17.926Z,16.50
2022-08-22T01:51:53.444Z,16.50
2022-08-22T01:54:39.359Z,16.50
2022-08-22T01:57:07.950Z,16.50
2022-08-22T01:59:34.804Z,16.50
2022-08-22T02:02:15.299Z,16.50
2022-08-22T02:04:52.279Z,16.50
2022-08-22T02:07:35.330Z,16.50
2022-08-22T02:10:10.070Z,16.50
2022-08-22T02:12:49.672Z,16.40
2022-08-22T02:15:22.914Z,16.40
2022-08-22T02:17:59.149Z,16.40
2022-08-22T02:20:37.833Z,16.30
2022-08-22T02:23:07.422Z,16.30
2022-08-22T02:25:45.783Z,16.30
2022-08-22T02:28:14.353Z,16.20
2022-08-22T02:30:44.258Z,16.20
2022-08-22T02:33:14.753Z,16.20
2022-08-22T02:36:00.348Z,16.20
2022-08-22T02:38:39.202Z,16.20
2022-08-22T02:41:32.460Z,16.30
2022-08-22T02:44:14.045Z,16.30
2022-08-22T02:46:51.370Z,16.30
2022-08-22T02:49:36.074Z,16.30
2022-08-22T02:52:15.201Z,16.30
2022-08-22T02:54:47.382Z,16.30
2022-08-22T02:57:17.199Z,16.30
2022-08-22T03:00:30.818Z,16.30
2022-08-22T03:03:14.256Z,16.30
2022-08-22T03:05:46.899Z,16.30
2022-08-22T03:08:21.181Z,16.30
2022-08-22T03:10:54.684Z,16.30
2022-08-22T03:13:37.599Z,16.30
2022-08-22T03:16:07.149Z,16.40
2022-08-22T03:18:45.517Z,16.40
2022-08-22T03:21:19.091Z,16.50
2022-08-22T03:23:49.041Z,16.50
2022-08-22T03:26:15.737Z,16.50
2022-08-22T03:28:59.313Z,16.40
2022-08-22T03:31:28.270Z,16.40
2022-08-22T03:34:13.838Z,16.40
2022-08-22T03:36:45.770Z,16.40
2022-08-22T03:39:18.950Z,16.40
2022-08-22T03:42:09.440Z,16.40
2022-08-22T03:45:01.140Z,16.40
2022-08-22T03:47:38.645Z,16.40
2022-08-22T03:50:14.843Z,16.40
2022-08-22T03:53:16.255Z,16.30
2022-08-22T03:55:45.646Z,16.30
2022-08-22T03:58:33.740Z,16.30
2022-08-22T04:01:07.088Z,16.20
2022-08-22T04:03:58.294Z,16.20
2022-08-22T04:06:38.897Z,16.20
2022-08-22T04:09:22.195Z,16.10
2022-08-22T04:12:08.806Z,16.10
2022-08-22T04:14:47.614Z,16.10
2022-08-22T04:17:28.933Z,16.10
2022-08-22T04:20:15.188Z,16.10
2022-08-22T04:22:46.819Z,16.10
2022-08-22T04:25:23.444Z,16.00
2022-08-22T04:28:22.599Z,16.00
2022-08-22T04:31:12.510Z,16.00
2022-08-22T04:34:01.407Z,16.10
2022-08-22T04:36:35.040Z,16.00
2022-08-22T04:39:09.772Z,16.00
2022-08-22T04:42:00.636Z,16.00
2022-08-22T04:44:40.996Z,16.00
2022-08-22T04:47:22.863Z,16.00
2022-08-22T04:49:58.295Z,16.00
2022-08-22T04:52:43.919Z,16.00
2022-08-22T04:55:25.962Z,16.10
2022-08-22T04:58:12.134Z,16.10
2022-08-22T05:00:45.572Z,16.10
2022-08-22T05:03:15.077Z,16.10
2022-08-22T05:05:45.023Z,16.20
2022-08-22T05:08:13.314Z,16.30
2022-08-22T05:10:42.257Z,16.30
2022-08-22T05:13:12.021Z,16.40
2022-08-22T05:15:45.913Z,16.50
2022-08-22T05:18:14.595Z,16.50
2022-08-22T05:20:44.681Z,16.60
2022-08-22T05:23:17.217Z,16.50
2022-08-22T05:25:45.722Z,16.70
2022-08-22T05:28:20.894Z,17.00
2022-08-22T05:30:48.172Z,17.20
2022-08-22T05:33:25.501Z,17.50
2022-08-22T05:35:57.920Z,17.50
2022-08-22T05:38:30.381Z,17.40
2022-08-22T05:41:00.770Z,17.40
2022-08-22T05:43:27.985Z,17.40
2022-08-22T05:45:57.204Z,17.30
2022-08-22T05:48:35.016Z,17.30
2022-08-22T05:51:14.594Z,17.30
2022-08-22T05:53:44.692Z,17.40
2022-08-22T05:56:13.939Z,17.40
2022-08-22T05:58:43.711Z,17.40
2022-08-22T06:01:16.283Z,17.50
2022-08-22T06:03:45.900Z,17.70
2022-08-22T06:06:16.405Z,17.80
2022-08-22T06:08:46.007Z,17.80
2022-08-22T06:11:18.019Z,17.90
2022-08-22T06:13:51.594Z,18.10
2022-08-22T06:16:22.497Z,18.30
2022-08-22T06:18:50.190Z,18.60
2022-08-22T06:21:39.347Z,19.10
2022-08-22T06:24:08.843Z,19.40
2022-08-22T06:26:38.014Z,19.40
2022-08-22T06:29:06.369Z,19.40
2022-08-22T06:31:36.073Z,19.30
2022-08-22T06:34:05.375Z,19.20
2022-08-22T06:36:34.154Z,19.20
2022-08-22T06:39:01.290Z,19.10
2022-08-22T06:41:29.553Z,19.10
2022-08-22T06:44:00.323Z,19.20
2022-08-22T06:46:29.193Z,19.20
2022-08-22T06:49:01.162Z,19.20
2022-08-22T06:51:31.281Z,19.20
2022-08-22T06:54:06.459Z,19.30
2022-08-22T06:56:43.198Z,19.40
2022-08-22T06:59:17.299Z,19.40
2022-08-22T07:01:58.921Z,19.50
2022-08-22T07:04:26.865Z,19.60
2022-08-22T07:06:55.720Z,19.80
2022-08-22T07:09:27.079Z,19.90
2022-08-22T07:11:56.412Z,20.00
2022-08-22T07:14:29.745Z,20.20
2022-08-22T07:17:04.482Z,20.40
2022-08-22T07:19:37.157Z,20.50
2022-08-22T07:22:23.438Z,20.60
2022-08-22T07:25:00.469Z,20.80
2022-08-22T07:27:39.085Z,21.00
2022-08-22T07:30:12.167Z,21.10
2022-08-22T07:32:45.482Z,21.30
2022-08-22T07:35:25.420Z,21.50
2022-08-22T07:37:58.410Z,21.70
2022-08-22T07:40:32.710Z,22.00
2022-08-22T07:43:15.918Z,22.10
2022-08-22T07:45:52.296Z,22.10
2022-08-22T07:48:26.150Z,22.10
2022-08-22T07:51:05.800Z,22.10
2022-08-22T07:53:47.246Z,22.00
2022-08-22T07:56:25.512Z,21.90
2022-08-22T07:58:55.397Z,21.90
2022-08-22T08:01:23.247Z,21.90
2022-08-22T08:04:04.054Z,21.70
2022-08-22T08:06:32.450Z,21.70
2022-08-22T08:08:59.370Z,21.70
2022-08-22T08:11:27.661Z,21.70
2022-08-22T08:13:58.090Z,21.70
2022-08-22T08:16:27.488Z,21.80
2022-08-22T08:18:57.057Z,21.80
2022-08-22T08:21:29.794Z,21.90
2022-08-22T08:23:56.989Z,21.90
2022-08-22T08:26:27.219Z,22.00
2022-08-22T08:28:55.565Z,22.20
2022-08-22T08:31:25.146Z,22.50
2022-08-22T08:33:58.114Z,22.80
2022-08-22T08:36:30.806Z,23.20
2022-08-22T08:41:31.020Z,25.40
2022-08-22T08:43:57.817Z,26.40
2022-08-22T08:46:34.625Z,27.40
2022-08-22T08:49:24.753Z,28.00
2022-08-22T08:52:04.022Z,28.90
2022-08-22T08:54:56.800Z,29.60
2022-08-22T08:57:58.751Z,30.40
2022-08-22T09:00:45.720Z,30.70
2022-08-22T09:03:42.034Z,31.10
2022-08-22T09:06:52.878Z,31.30
2022-08-22T09:09:52.258Z,31.40
2022-08-22T09:12:25.923Z,31.20
2022-08-22T09:15:15.407Z,31.30
2022-08-22T09:18:00.426Z,31.50
2022-08-22T09:20:48.605Z,31.60
2022-08-22T09:23:53.799Z,31.70
2022-08-22T09:26:45.943Z,31.70
2022-08-22T09:29:29.066Z,31.90
2022-08-22T09:32:39.191Z,32.00
2022-08-22T09:35:30.521Z,32.40
2022-08-22T09:38:47.849Z,32.50
2022-08-22T09:41:33.068Z,32.90
2022-08-22T09:44:12.120Z,33.00
2022-08-22T09:46:53.155Z,33.00
2022-08-22T09:50:04.967Z,33.00
2022-08-22T09:52:54.765Z,32.90
2022-08-22T09:55:35.034Z,32.60
2022-08-22T09:58:21.627Z,32.20
2022-08-22T10:00:51.381Z,31.70
2022-08-22T10:03:42.079Z,31.40
2022-08-22T10:06:14.262Z,31.20
2022-08-22T10:08:47.019Z,31.40
2022-08-22T10:11:13.722Z,31.60
2022-08-22T10:14:01.560Z,31.70
2022-08-22T10:16:40.549Z,31.50
2022-08-22T10:19:07.295Z,31.20
2022-08-22T10:21:35.370Z,31.00
2022-08-22T10:24:24.604Z,30.80
2022-08-22T10:26:54.382Z,30.70
2022-08-22T10:29:30.061Z,30.60
2022-08-22T10:32:00.073Z,30.50
2022-08-22T10:34:37.094Z,30.40
2022-08-22T10:37:23.877Z,30.30
2022-08-22T10:40:11.111Z,30.10
2022-08-22T10:42:41.786Z,29.90
2022-08-22T10:45:14.883Z,29.90
2022-08-22T10:47:57.411Z,29.70
2022-08-22T10:50:31.870Z,29.60
2022-08-22T10:53:35.053Z,29.50
2022-08-22T10:56:14.315Z,29.40
2022-08-22T10:59:01.153Z,29.20
2022-08-22T11:01:37.845Z,29.10
2022-08-22T11:04:15.219Z,28.90
2022-08-22T11:06:45.420Z,28.70
2022-08-22T11:09:15.859Z,28.60
2022-08-22T11:11:49.692Z,28.50
2022-08-22T11:14:24.941Z,28.50
2022-08-22T11:16:58.362Z,28.50
2022-08-22T11:19:34.260Z,28.40
2022-08-22T11:22:10.247Z,28.40
2022-08-22T11:24:55.694Z,28.30
2022-08-22T11:27:43.634Z,28.30
2022-08-22T11:30:18.706Z,28.30
2022-08-22T11:33:08.542Z,28.10
2022-08-22T11:35:36.301Z,28.00
2022-08-22T11:38:08.879Z,28.00
2022-08-22T11:40:47.040Z,27.90
2022-08-22T11:43:32.786Z,27.90
2022-08-22T11:46:02.974Z,28.00
2022-08-22T11:48:31.947Z,28.10
2022-08-22T11:51:13.144Z,28.20
2022-08-22T11:53:47.356Z,28.40
2022-08-22T11:56:34.512Z,28.60
2022-08-22T11:59:04.916Z,28.90
2022-08-22T12:01:42.876Z,29.00
2022-08-22T12:04:28.472Z,29.10
2022-08-22T12:07:13.761Z,29.30
2022-08-22T12:09:58.668Z,29.40
2022-08-22T12:12:30.003Z,29.30
2022-08-22T12:14:57.074Z,29.20
2022-08-22T12:17:55.973Z,29.30
2022-08-22T12:20:16.808Z,29.30
2022-08-22T12:22:50.906Z,29.40
2022-08-22T12:25:36.273Z,29.40
2022-08-22T12:28:11.336Z,29.40
2022-08-22T12:30:46.682Z,29.50
2022-08-22T12:33:14.296Z,29.40
2022-08-22T12:36:12.631Z,29.30
2022-08-22T12:39:04.196Z,29.10
2022-08-22T12:41:38.166Z,28.80
2022-08-22T12:44:23.669Z,28.50
2022-08-22T12:47:09.274Z,28.20
2022-08-22T12:49:44.920Z,28.20
2022-08-22T12:52:23.122Z,28.40
2022-08-22T12:55:02.340Z,28.60
2022-08-22T12:57:41.167Z,28.90
2022-08-22T13:00:22.848Z,29.00
2022-08-22T13:02:54.030Z,29.20
2022-08-22T13:05:23.337Z,29.50
2022-08-22T13:07:54.558Z,29.60
2022-08-22T13:10:37.587Z,29.50
2022-08-22T13:13:12.262Z,29.50
2022-08-22T13:15:46.444Z,29.60
2022-08-22T13:18:30.739Z,29.70
2022-08-22T13:21:00.844Z,29.70
2022-08-22T13:23:34.267Z,29.60
2022-08-22T13:26:16.355Z,29.50
2022-08-22T13:29:24.658Z,29.40
2022-08-22T13:31:53.355Z,29.40
2022-08-22T13:34:25.001Z,29.40
2022-08-22T13:36:58.185Z,29.40
2022-08-22T13:39:35.455Z,29.10
2022-08-22T13:42:14.176Z,29.00
2022-08-22T13:44:48.528Z,29.00
2022-08-22T13:47:18.778Z,29.00
2022-08-22T13:49:54.468Z,29.00
2022-08-22T13:52:38.126Z,29.20
2022-08-22T13:55:22.217Z,29.30
2022-08-22T13:57:58.142Z,29.40
2022-08-22T14:00:56.533Z,29.40
2022-08-22T14:03:39.745Z,29.50
2022-08-22T14:06:35.305Z,29.50
2022-08-22T14:09:09.407Z,29.50
2022-08-22T14:11:43.203Z,29.70
2022-08-22T14:14:10.235Z,29.80
2022-08-22T14:16:48.848Z,29.80
2022-08-22T14:19:23.723Z,29.90
2022-08-22T14:21:59.632Z,30.00
2022-08-22T14:24:28.420Z,30.10
2022-08-22T14:26:57.909Z,30.20
2022-08-22T14:29:26.210Z,30.30
2022-08-22T14:31:58.047Z,30.30
2022-08-22T14:34:25.911Z,30.40
2022-08-22T14:37:01.768Z,30.40
2022-08-22T14:39:48.800Z,30.50
2022-08-22T14:42:19.046Z,30.50
2022-08-22T14:44:51.985Z,30.50
2022-08-22T14:47:54.438Z,30.20
2022-08-22T14:50:36.952Z,30.10
2022-08-22T14:53:05.563Z,30.00
2022-08-22T14:55:32.852Z,29.90
2022-08-22T14:58:05.996Z,29.80
2022-08-22T15:00:40.931Z,29.70
2022-08-22T15:03:09.495Z,29.60
2022-08-22T15:05:45.636Z,29.60
2022-08-22T15:08:20.269Z,29.50
2022-08-22T15:11:04.970Z,29.50
2022-08-22T15:13:34.945Z,29.30
2022-08-22T15:16:13.192Z,29.00
2022-08-22T15:18:41.239Z,29.00
2022-08-22T15:27:17.370Z,28.70
2022-08-22T15:29:49.559Z,28.50
2022-08-22T15:32:20.300Z,28.50
2022-08-22T15:34:52.318Z,28.50
2022-08-22T15:37:19.482Z,28.40
2022-08-22T15:40:02.658Z,28.50
2022-08-22T15:42:34.681Z,28.40
2022-08-22T15:45:02.361Z,28.40
2022-08-22T15:47:41.364Z,28.30
2022-08-22T15:50:10.251Z,28.30
2022-08-22T15:53:05.238Z,28.30
2022-08-22T15:55:34.455Z,28.30
2022-08-22T15:58:07.607Z,28.20
2022-08-22T16:00:41.452Z,28.20
2022-08-22T16:03:23.946Z,28.10
2022-08-22T16:05:59.091Z,28.00
2022-08-22T16:08:33.120Z,28.00
2022-08-22T16:11:02.964Z,27.90
2022-08-22T16:13:29.891Z,27.90
2022-08-22T16:16:00.067Z,27.90
2022-08-22T16:18:44.867Z,27.80
2022-08-22T16:21:15.760Z,27.70
2022-08-22T16:23:49.741Z,27.70
2022-08-22T16:26:22.552Z,27.50
2022-08-22T16:28:59.263Z,27.40
2022-08-22T16:31:44.199Z,27.40
2022-08-22T16:34:16.977Z,27.30
2022-08-22T16:36:52.262Z,27.30
2022-08-22T16:39:22.152Z,27.20
2022-08-22T16:41:54.310Z,27.20
2022-08-22T16:44:21.052Z,27.10
2022-08-22T16:46:48.727Z,27.10
2022-08-22T16:49:44.780Z,27.10
2022-08-22T16:52:20.377Z,27.20
2022-08-22T16:54:48.170Z,27.10
2022-08-22T16:57:33.667Z,27.10
2022-08-22T17:00:03.179Z,27.10
2022-08-22T17:02:41.576Z,27.00
2022-08-22T17:05:11.424Z,27.00
2022-08-22T17:07:47.067Z,27.00
2022-08-22T17:10:32.260Z,27.00
2022-08-22T17:13:10.985Z,27.00
2022-08-22T17:15:43.602Z,27.00
2022-08-22T17:18:10.582Z,26.90
2022-08-22T17:20:38.749Z,26.90
2022-08-22T17:23:18.220Z,26.90
2022-08-22T17:25:53.033Z,26.80
2022-08-22T17:28:39.797Z,26.60
2022-08-22T17:31:06.510Z,26.60
2022-08-22T17:33:53.247Z,26.50
2022-08-22T17:36:38.513Z,26.40
2022-08-22T17:39:37.540Z,26.30
2022-08-22T17:42:04.366Z,26.20
2022-08-22T17:44:50.040Z,26.00
2022-08-22T17:47:22.339Z,26.00
2022-08-22T17:50:04.913Z,25.90
2022-08-22T17:52:34.392Z,25.80
2022-08-22T17:55:18.106Z,25.70
2022-08-22T17:57:53.472Z,25.60
2022-08-22T18:00:26.560Z,25.50
2022-08-22T18:02:56.091Z,25.50
2022-08-22T18:05:29.436Z,25.40
2022-08-22T18:08:02.702Z,25.30
2022-08-22T18:10:34.793Z,25.30
2022-08-22T18:13:07.203Z,25.20
2022-08-22T18:15:41.784Z,25.10
2022-08-22T18:18:30.360Z,25.10
2022-08-22T18:21:11.667Z,25.00
2022-08-22T18:23:44.450Z,25.00
2022-08-22T18:26:20.726Z,25.00
2022-08-22T18:29:06.557Z,24.90
2022-08-22T18:31:38.883Z,24.80
2022-08-22T18:34:13.054Z,24.80
2022-08-22T18:36:45.982Z,24.80
2022-08-22T18:39:42.817Z,24.70
2022-08-22T18:42:18.283Z,24.60
2022-08-22T18:44:45.473Z,24.50
2022-08-22T18:47:14.747Z,24.50
2022-08-22T18:49:43.943Z,24.40
2022-08-22T18:52:14.075Z,24.30
2022-08-22T18:54:49.972Z,24.20
2022-08-22T18:57:42.479Z,24.20
2022-08-22T19:00:13.395Z,24.20
2022-08-22T19:02:55.844Z,24.10
2022-08-22T19:05:32.831Z,24.10
2022-08-22T19:08:09.175Z,24.00
2022-08-22T19:10:50.802Z,24.00
2022-08-22T19:13:21.544Z,24.00
2022-08-22T19:15:51.413Z,24.00
2022-08-22T19:18:20.928Z,23.90
2022-08-22T19:21:26.515Z,23.90
2022-08-22T19:23:54.964Z,23.90
2022-08-22T19:26:54.135Z,23.80
2022-08-22T19:29:24.285Z,23.80
2022-08-22T19:31:52.575Z,23.70
2022-08-22T19:34:28.479Z,23.70
2022-08-22T19:37:33.066Z,23.70
2022-08-22T19:40:05.211Z,23.70
2022-08-22T19:42:34.346Z,23.60
2022-08-22T19:45:03.173Z,23.60
2022-08-22T19:47:34.755Z,23.60
2022-08-22T19:50:09.811Z,23.60
2022-08-22T19:52:55.528Z,23.50
2022-08-22T19:55:26.332Z,23.50
2022-08-22T19:57:54.027Z,23.50
2022-08-22T20:00:23.857Z,23.50
2022-08-22T20:02:50.584Z,23.50
2022-08-22T20:05:31.905Z,23.50
2022-08-22T20:08:10.477Z,23.40
2022-08-22T20:10:57.487Z,23.40
2022-08-22T20:13:30.147Z,23.40
2022-08-22T20:16:16.239Z,23.40
2022-08-22T20:19:09.917Z,23.30
2022-08-22T20:21:45.992Z,23.20
2022-08-22T20:24:15.508Z,23.20
2022-08-22T20:27:09.998Z,23.10
2022-08-22T20:29:34.507Z,23.10
2022-08-22T20:32:02.226Z,23.10
2022-08-22T20:34:30.127Z,23.10
2022-08-22T20:37:16.080Z,23.00
2022-08-22T20:40:07.857Z,23.00
2022-08-22T20:42:53.874Z,23.00
2022-08-22T20:45:22.969Z,22.90
2022-08-22T20:47:55.158Z,22.90
2022-08-22T20:50:24.543Z,22.90
2022-08-22T20:53:09.277Z,22.90
2022-08-22T20:55:36.420Z,22.80
2022-08-22T20:58:20.379Z,22.80
2022-08-22T21:00:48.737Z,22.70
2022-08-22T21:03:24.747Z,22.70
2022-08-22T21:05:51.818Z,22.60
2022-08-22T21:08:19.697Z,22.50
2022-08-22T21:11:14.850Z,22.50
2022-08-22T21:13:41.640Z,22.50
2022-08-22T21:16:13.677Z,22.50
2022-08-22T21:18:41.597Z,22.50
2022-08-22T21:21:14.765Z,22.40
2022-08-22T21:23:49.493Z,22.40
2022-08-22T21:26:25.047Z,22.40
2022-08-22T21:29:03.935Z,22.30
2022-08-22T21:31:41.444Z,22.30
2022-08-22T21:34:15.534Z,22.20
2022-08-22T21:36:42.356Z,22.20
2022-08-22T21:39:35.879Z,22.20
2022-08-22T21:42:02.589Z,22.20
2022-08-22T21:44:34.187Z,22.20
2022-08-22T21:47:14.809Z,22.20
2022-08-22T21:50:07.268Z,22.20
2022-08-22T21:52:38.228Z,22.20
2022-08-22T21:55:26.854Z,22.20
2022-08-22T21:58:35.750Z,22.20
2022-08-22T22:01:24.901Z,22.10
2022-08-22T22:03:54.210Z,22.00
2022-08-22T22:06:20.952Z,22.00
2022-08-22T22:08:49.002Z,21.90
2022-08-22T22:11:15.894Z,21.90
2022-08-22T22:13:43.316Z,21.90
2022-08-22T22:16:12.173Z,21.80
2022-08-22T22:18:39.702Z,21.80
2022-08-22T22:21:06.646Z,21.70
2022-08-22T22:23:33.382Z,21.70
2022-08-22T22:26:01.215Z,21.70
2022-08-22T22:28:38.174Z,21.70
2022-08-22T22:31:05.607Z,21.70
2022-08-22T22:33:34.172Z,21.70
2022-08-22T22:36:06.931Z,21.70
2022-08-22T22:38:33.921Z,21.70
2022-08-22T22:41:00.854Z,21.60
2022-08-22T22:43:27.733Z,21.60
2022-08-22T22:45:54.733Z,21.50
2022-08-22T22:48:24.039Z,21.60
2022-08-22T22:50:52.664Z,21.50
2022-08-22T22:53:28.377Z,21.50
2022-08-22T22:57:58.804Z,21.50
2022-08-22T23:00:29.733Z,21.50
2022-08-22T23:02:59.004Z,21.50
2022-08-22T23:05:25.777Z,21.50
2022-08-22T23:07:52.505Z,21.50
2022-08-22T23:10:22.120Z,21.40
2022-08-22T23:12:49.107Z,21.40
2022-08-22T23:15:16.738Z,21.40
2022-08-22T23:17:43.802Z,21.40
2022-08-22T23:20:10.640Z,21.40
2022-08-22T23:22:37.524Z,21.30
2022-08-22T23:25:04.690Z,21.20
2022-08-22T23:27:31.574Z,21.20
2022-08-22T23:29:58.306Z,21.20
2022-08-22T23:32:25.069Z,21.20
2022-08-22T23:34:53.209Z,21.20
2022-08-22T23:37:21.256Z,21.20
2022-08-22T23:39:48.626Z,21.20
2022-08-22T23:42:15.975Z,21.20
2022-08-22T23:44:45.138Z,21.10
2022-08-22T23:47:12.594Z,21.10
2022-08-22T23:49:40.569Z,21.00
2022-08-22T23:52:07.974Z,21.00
2022-08-22T23:54:34.842Z,20.90
2022-08-22T23:57:02.448Z,20.90
2022-08-22T23:59:31.012Z,20.80
